Oquossoc, ME (04964)

5:54 PM EST on December 02, 2016 (GMT -0500)
MesoWest | | Change Station

Elev 1482 ft 45.01 °N, 70.83 °W | Updated 39 minutes ago

Light Snow
Light Snow Mist
34 °F
Feels Like 34 °F
N
0
Wind Variable Wind from North
Gusts 0.0 mph

Today
High -- | Low -- °F
--% Chance of Precip.
Yesterday
High -- | Low -- °F
Precip. -- in
Pressure 29.67 in
Visibility 3.0 miles
Clouds Few 1200 ft
Mostly Cloudy 1800 ft
Overcast 3200 ft
Windchill 34 °F
Dew Point 34 °F
Humidity 98%
Rainfall in
Snow Depth Not available.
7:02 AM 4:02 PM
Waxing Crescent, 11% visible
METAR KBML 022252Z AUTO 34010G19KT 3SM -SN BR FEW012 BKN018 OVC032 02/M01 A2963 RMK AO2 RAB42E46SNB46 SLP046 P0001 T00171006
Pressure 29.67 in
Visibility 3.0 miles
Clouds Few 1200 ft
Mostly Cloudy 1800 ft
Overcast 3200 ft
Windchill 34 °F
Dew Point 34 °F
Humidity 98%
Rainfall in
Snow Depth Not available.
7:02 AM 4:02 PM
Waxing Crescent, 11% visible
METAR KBML 022252Z AUTO 34010G19KT 3SM -SN BR FEW012 BKN018 OVC032 02/M01 A2963 RMK AO2 RAB42E46SNB46 SLP046 P0001 T00171006

10-Day Weather Forecast

Almanac

Astronomy

Dec. 02, 2016 Rise Set
Actual Time
Civil Twilight
Nautical Twilight
Astronomical Twilight
Moon
Length of Visible Light
Length of Day
Tomorrow will be .
, % of the Moon is Illuminated

Today's Extremes

State Highs State Lows

Community

WunderPhotos

Upload Photos

1,955,368 photos uploaded!

WunderBlog® & News

Nearby

Air Quality

  Air Quality AQ Index Pollutant
Not available.

Snow Depth

Station Depth Elevation

Earthquake Activity

City Distance Mag. Time & Date
Minimum magnitude displayed is 2.5.

Coastal Water Temperatures

Place Temperature

Stations

Nearby Weather Stations

Station Location Temp. Windchill Dew Point Humidity Wind Precip. Elev Updated Type
                   

Watches & Warnings

There are currently no watches in effect.